sensor_id;sensor_type;location;lat;lon;timestamp;temperature;humidity
13346;DHT22;6742;48.036;15.780;2024-02-15T00:02:27;6.50;99.90
13346;DHT22;6742;48.036;15.780;2024-02-15T00:04:55;6.60;99.90
13346;DHT22;6742;48.036;15.780;2024-02-15T00:07:22;6.60;99.90
13346;DHT22;6742;48.036;15.780;2024-02-15T00:09:49;6.60;99.90
13346;DHT22;6742;48.036;15.780;2024-02-15T00:12:17;6.70;99.90
13346;DHT22;6742;48.036;15.780;2024-02-15T00:14:44;6.70;99.90
13346;DHT22;6742;48.036;15.780;2024-02-15T00:17:11;6.70;99.90
13346;DHT22;6742;48.036;15.780;2024-02-15T00:19:38;6.60;99.90
13346;DHT22;6742;48.036;15.780;2024-02-15T00:22:08;6.60;99.90
13346;DHT22;6742;48.036;15.780;2024-02-15T00:24:37;6.60;99.90
13346;DHT22;6742;48.036;15.780;2024-02-15T00:27:04;6.70;99.90
13346;DHT22;6742;48.036;15.780;2024-02-15T00:29:31;6.70;99.90
13346;DHT22;6742;48.036;15.780;2024-02-15T00:31:59;6.70;99.90
13346;DHT22;6742;48.036;15.780;2024-02-15T00:34:26;6.70;99.90
13346;DHT22;6742;48.036;15.780;2024-02-15T00:36:53;6.70;99.90
13346;DHT22;6742;48.036;15.780;2024-02-15T00:39:22;6.70;99.90
13346;DHT22;6742;48.036;15.780;2024-02-15T00:41:48;6.80;99.90
13346;DHT22;6742;48.036;15.780;2024-02-15T00:44:15;6.80;99.90
13346;DHT22;6742;48.036;15.780;2024-02-15T00:46:43;6.80;99.90
13346;DHT22;6742;48.036;15.780;2024-02-15T00:49:10;6.80;99.90
13346;DHT22;6742;48.036;15.780;2024-02-15T00:51:37;6.80;99.90
13346;DHT22;6742;48.036;15.780;2024-02-15T00:54:04;6.80;99.90
13346;DHT22;6742;48.036;15.780;2024-02-15T00:56:32;6.80;99.90
13346;DHT22;6742;48.036;15.780;2024-02-15T00:58:59;6.80;99.90
13346;DHT22;6742;48.036;15.780;2024-02-15T01:01:27;6.80;99.90
13346;DHT22;6742;48.036;15.780;2024-02-15T01:03:54;6.80;99.90
13346;DHT22;6742;48.036;15.780;2024-02-15T01:06:21;6.80;99.90
13346;DHT22;6742;48.036;15.780;2024-02-15T01:08:48;6.90;99.90
13346;DHT22;6742;48.036;15.780;2024-02-15T01:11:15;6.90;99.90
13346;DHT22;6742;48.036;15.780;2024-02-15T01:13:44;6.90;99.90
13346;DHT22;6742;48.036;15.780;2024-02-15T01:16:11;6.90;99.90
13346;DHT22;6742;48.036;15.780;2024-02-15T01:18:38;6.90;99.90
13346;DHT22;6742;48.036;15.780;2024-02-15T01:21:05;6.90;99.90
13346;DHT22;6742;48.036;15.780;2024-02-15T01:23:32;6.80;99.90
13346;DHT22;6742;48.036;15.780;2024-02-15T01:26:01;6.80;99.90
13346;DHT22;6742;48.036;15.780;2024-02-15T01:28:27;6.90;99.90
13346;DHT22;6742;48.036;15.780;2024-02-15T01:30:56;6.90;99.90
13346;DHT22;6742;48.036;15.780;2024-02-15T01:33:23;6.90;99.90
13346;DHT22;6742;48.036;15.780;2024-02-15T01:35:50;6.90;99.90
13346;DHT22;6742;48.036;15.780;2024-02-15T01:38:17;7.00;99.90
13346;DHT22;6742;48.036;15.780;2024-02-15T01:40:45;7.00;99.90
13346;DHT22;6742;48.036;15.780;2024-02-15T01:43:13;7.00;99.90
13346;DHT22;6742;48.036;15.780;2024-02-15T01:45:41;7.00;99.90
13346;DHT22;6742;48.036;15.780;2024-02-15T01:48:10;7.00;99.90
13346;DHT22;6742;48.036;15.780;2024-02-15T01:50:37;7.00;99.90
13346;DHT22;6742;48.036;15.780;2024-02-15T01:53:06;7.00;99.90
13346;DHT22;6742;48.036;15.780;2024-02-15T01:55:33;7.00;99.90
13346;DHT22;6742;48.036;15.780;2024-02-15T01:58:01;7.00;99.90
13346;DHT22;6742;48.036;15.780;2024-02-15T02:00:28;7.00;99.90
13346;DHT22;6742;48.036;15.780;2024-02-15T02:02:56;7.00;99.90
13346;DHT22;6742;48.036;15.780;2024-02-15T02:05:29;7.00;99.90
13346;DHT22;6742;48.036;15.780;2024-02-15T02:07:56;7.00;99.90
13346;DHT22;6742;48.036;15.780;2024-02-15T02:10:27;7.10;99.90
13346;DHT22;6742;48.036;15.780;2024-02-15T02:12:58;7.00;99.90
13346;DHT22;6742;48.036;15.780;2024-02-15T02:15:25;7.10;99.90
13346;DHT22;6742;48.036;15.780;2024-02-15T02:17:53;7.10;99.90
13346;DHT22;6742;48.036;15.780;2024-02-15T02:20:20;7.10;99.90
13346;DHT22;6742;48.036;15.780;2024-02-15T02:22:51;7.10;99.90
13346;DHT22;6742;48.036;15.780;2024-02-15T02:25:23;7.10;99.90
13346;DHT22;6742;48.036;15.780;2024-02-15T02:27:52;7.10;99.90
13346;DHT22;6742;48.036;15.780;2024-02-15T02:30:20;7.10;99.90
13346;DHT22;6742;48.036;15.780;2024-02-15T02:32:48;7.10;99.90
13346;DHT22;6742;48.036;15.780;2024-02-15T02:35:15;7.10;99.90
13346;DHT22;6742;48.036;15.780;2024-02-15T02:37:42;7.10;99.90
13346;DHT22;6742;48.036;15.780;2024-02-15T02:40:11;7.10;99.90
13346;DHT22;6742;48.036;15.780;2024-02-15T02:42:48;7.10;99.90
13346;DHT22;6742;48.036;15.780;2024-02-15T02:45:16;7.10;99.90
13346;DHT22;6742;48.036;15.780;2024-02-15T02:47:45;7.10;99.90
13346;DHT22;6742;48.036;15.780;2024-02-15T02:50:12;7.10;99.90
13346;DHT22;6742;48.036;15.780;2024-02-15T02:52:39;7.00;99.90
13346;DHT22;6742;48.036;15.780;2024-02-15T02:55:07;7.00;99.90
13346;DHT22;6742;48.036;15.780;2024-02-15T02:57:34;7.00;99.90
13346;DHT22;6742;48.036;15.780;2024-02-15T03:00:05;7.00;99.90
13346;DHT22;6742;48.036;15.780;2024-02-15T03:02:34;7.00;99.90
13346;DHT22;6742;48.036;15.780;2024-02-15T03:05:02;7.00;99.90
13346;DHT22;6742;48.036;15.780;2024-02-15T03:07:32;7.00;99.90
13346;DHT22;6742;48.036;15.780;2024-02-15T03:09:59;7.00;99.90
13346;DHT22;6742;48.036;15.780;2024-02-15T03:12:26;7.10;99.90
13346;DHT22;6742;48.036;15.780;2024-02-15T03:14:55;7.10;99.90
13346;DHT22;6742;48.036;15.780;2024-02-15T03:17:24;7.10;99.90
13346;DHT22;6742;48.036;15.780;2024-02-15T03:19:51;7.10;99.90
13346;DHT22;6742;48.036;15.780;2024-02-15T03:22:18;7.20;99.90
13346;DHT22;6742;48.036;15.780;2024-02-15T03:24:45;7.20;99.90
13346;DHT22;6742;48.036;15.780;2024-02-15T03:27:12;7.20;99.90
13346;DHT22;6742;48.036;15.780;2024-02-15T03:29:39;7.20;99.90
13346;DHT22;6742;48.036;15.780;2024-02-15T03:32:06;7.20;99.90
13346;DHT22;6742;48.036;15.780;2024-02-15T03:34:36;7.20;99.90
13346;DHT22;6742;48.036;15.780;2024-02-15T03:37:05;7.10;99.90
13346;DHT22;6742;48.036;15.780;2024-02-15T03:39:32;7.10;99.90
13346;DHT22;6742;48.036;15.780;2024-02-15T03:41:59;7.10;99.90
13346;DHT22;6742;48.036;15.780;2024-02-15T03:44:26;7.10;99.90
13346;DHT22;6742;48.036;15.780;2024-02-15T03:46:53;7.10;99.90
13346;DHT22;6742;48.036;15.780;2024-02-15T03:49:20;7.10;99.90
13346;DHT22;6742;48.036;15.780;2024-02-15T03:51:49;7.10;99.90
13346;DHT22;6742;48.036;15.780;2024-02-15T03:54:16;7.20;99.90
13346;DHT22;6742;48.036;15.780;2024-02-15T03:56:47;7.20;99.90
13346;DHT22;6742;48.036;15.780;2024-02-15T03:59:17;7.20;99.90
13346;DHT22;6742;48.036;15.780;2024-02-15T04:01:47;7.20;99.90
13346;DHT22;6742;48.036;15.780;2024-02-15T04:04:14;7.20;99.90
13346;DHT22;6742;48.036;15.780;2024-02-15T04:06:41;7.20;99.90
13346;DHT22;6742;48.036;15.780;2024-02-15T04:09:09;7.20;99.90
13346;DHT22;6742;48.036;15.780;2024-02-15T04:11:37;7.20;99.90
13346;DHT22;6742;48.036;15.780;2024-02-15T04:14:04;7.20;99.90
13346;DHT22;6742;48.036;15.780;2024-02-15T04:16:31;7.20;99.90
13346;DHT22;6742;48.036;15.780;2024-02-15T04:18:59;7.20;99.90
13346;DHT22;6742;48.036;15.780;2024-02-15T04:21:27;7.20;99.90
13346;DHT22;6742;48.036;15.780;2024-02-15T04:23:54;7.20;99.90
13346;DHT22;6742;48.036;15.780;2024-02-15T04:26:22;7.20;99.90
13346;DHT22;6742;48.036;15.780;2024-02-15T04:28:52;7.20;99.90
13346;DHT22;6742;48.036;15.780;2024-02-15T04:31:20;7.20;99.90
13346;DHT22;6742;48.036;15.780;2024-02-15T04:33:52;7.20;99.90
13346;DHT22;6742;48.036;15.780;2024-02-15T04:36:19;7.20;99.90
13346;DHT22;6742;48.036;15.780;2024-02-15T04:38:49;7.20;99.90
13346;DHT22;6742;48.036;15.780;2024-02-15T04:41:17;7.20;99.90
13346;DHT22;6742;48.036;15.780;2024-02-15T04:43:50;7.30;99.90
13346;DHT22;6742;48.036;15.780;2024-02-15T04:46:17;7.30;99.90
13346;DHT22;6742;48.036;15.780;2024-02-15T04:48:46;7.30;99.90
13346;DHT22;6742;48.036;15.780;2024-02-15T04:51:15;7.30;99.90
13346;DHT22;6742;48.036;15.780;2024-02-15T04:53:43;7.20;99.90
13346;DHT22;6742;48.036;15.780;2024-02-15T04:56:12;7.20;99.90
13346;DHT22;6742;48.036;15.780;2024-02-15T04:58:40;7.20;99.90
13346;DHT22;6742;48.036;15.780;2024-02-15T05:01:14;7.20;99.90
13346;DHT22;6742;48.036;15.780;2024-02-15T05:03:41;7.20;99.90
13346;DHT22;6742;48.036;15.780;2024-02-15T05:06:08;7.20;99.90
13346;DHT22;6742;48.036;15.780;2024-02-15T05:08:36;7.20;99.90
13346;DHT22;6742;48.036;15.780;2024-02-15T05:11:04;7.20;99.90
13346;DHT22;6742;48.036;15.780;2024-02-15T05:13:32;7.20;99.90
13346;DHT22;6742;48.036;15.780;2024-02-15T05:15:59;7.20;99.90
13346;DHT22;6742;48.036;15.780;2024-02-15T05:18:27;7.20;99.90
13346;DHT22;6742;48.036;15.780;2024-02-15T05:20:56;7.20;99.90
13346;DHT22;6742;48.036;15.780;2024-02-15T05:23:23;7.20;99.90
13346;DHT22;6742;48.036;15.780;2024-02-15T05:25:52;7.20;99.90
13346;DHT22;6742;48.036;15.780;2024-02-15T05:28:21;7.20;99.90
13346;DHT22;6742;48.036;15.780;2024-02-15T05:31:09;7.20;99.90
13346;DHT22;6742;48.036;15.780;2024-02-15T05:33:38;7.20;99.90
13346;DHT22;6742;48.036;15.780;2024-02-15T05:36:06;7.20;99.90
13346;DHT22;6742;48.036;15.780;2024-02-15T05:38:34;7.20;99.90
13346;DHT22;6742;48.036;15.780;2024-02-15T05:41:01;7.10;99.90
13346;DHT22;6742;48.036;15.780;2024-02-15T05:43:28;7.10;99.90
13346;DHT22;6742;48.036;15.780;2024-02-15T05:45:56;7.10;99.90
13346;DHT22;6742;48.036;15.780;2024-02-15T05:48:23;7.10;99.90
13346;DHT22;6742;48.036;15.780;2024-02-15T05:50:54;7.10;99.90
13346;DHT22;6742;48.036;15.780;2024-02-15T05:53:21;7.10;99.90
13346;DHT22;6742;48.036;15.780;2024-02-15T05:55:47;7.10;99.90
13346;DHT22;6742;48.036;15.780;2024-02-15T05:58:15;7.10;99.90
13346;DHT22;6742;48.036;15.780;2024-02-15T06:00:42;7.00;99.90
13346;DHT22;6742;48.036;15.780;2024-02-15T06:03:10;7.10;99.90
13346;DHT22;6742;48.036;15.780;2024-02-15T06:05:38;7.10;99.90
13346;DHT22;6742;48.036;15.780;2024-02-15T06:08:07;7.10;99.90
13346;DHT22;6742;48.036;15.780;2024-02-15T06:10:34;7.10;99.90
13346;DHT22;6742;48.036;15.780;2024-02-15T06:13:00;7.10;99.90
13346;DHT22;6742;48.036;15.780;2024-02-15T06:15:27;7.10;99.90
13346;DHT22;6742;48.036;15.780;2024-02-15T06:17:54;7.10;99.90
13346;DHT22;6742;48.036;15.780;2024-02-15T06:20:22;7.10;99.90
13346;DHT22;6742;48.036;15.780;2024-02-15T06:22:51;7.10;99.90
13346;DHT22;6742;48.036;15.780;2024-02-15T06:25:20;7.20;99.90
13346;DHT22;6742;48.036;15.780;2024-02-15T06:27:47;7.20;99.90
13346;DHT22;6742;48.036;15.780;2024-02-15T06:30:14;7.20;99.90
13346;DHT22;6742;48.036;15.780;2024-02-15T06:32:58;7.30;99.90
13346;DHT22;6742;48.036;15.780;2024-02-15T06:35:43;7.30;99.90
13346;DHT22;6742;48.036;15.780;2024-02-15T06:38:27;7.30;99.90
13346;DHT22;6742;48.036;15.780;2024-02-15T06:41:13;7.30;99.90
13346;DHT22;6742;48.036;15.780;2024-02-15T06:43:40;7.30;99.90
13346;DHT22;6742;48.036;15.780;2024-02-15T06:46:07;7.30;99.90
13346;DHT22;6742;48.036;15.780;2024-02-15T06:48:36;7.30;99.90
13346;DHT22;6742;48.036;15.780;2024-02-15T06:51:03;7.30;99.90
13346;DHT22;6742;48.036;15.780;2024-02-15T06:53:31;7.30;99.90
13346;DHT22;6742;48.036;15.780;2024-02-15T06:55:58;7.30;99.90
13346;DHT22;6742;48.036;15.780;2024-02-15T06:58:26;7.30;99.90
13346;DHT22;6742;48.036;15.780;2024-02-15T07:00:54;7.30;99.90
13346;DHT22;6742;48.036;15.780;2024-02-15T07:03:21;7.40;99.90
13346;DHT22;6742;48.036;15.780;2024-02-15T07:05:49;7.40;99.90
13346;DHT22;6742;48.036;15.780;2024-02-15T07:08:16;7.20;99.90
13346;DHT22;6742;48.036;15.780;2024-02-15T07:10:43;7.30;99.90
13346;DHT22;6742;48.036;15.780;2024-02-15T07:13:10;7.30;99.90
13346;DHT22;6742;48.036;15.780;2024-02-15T07:15:38;7.30;99.90
13346;DHT22;6742;48.036;15.780;2024-02-15T07:18:05;7.40;99.90
13346;DHT22;6742;48.036;15.780;2024-02-15T07:20:33;7.40;99.90
13346;DHT22;6742;48.036;15.780;2024-02-15T07:23:00;7.50;99.90
13346;DHT22;6742;48.036;15.780;2024-02-15T07:25:27;7.50;99.90
13346;DHT22;6742;48.036;15.780;2024-02-15T07:27:53;7.50;99.90
13346;DHT22;6742;48.036;15.780;2024-02-15T07:30:22;7.60;99.90
13346;DHT22;6742;48.036;15.780;2024-02-15T07:32:50;7.60;99.90
13346;DHT22;6742;48.036;15.780;2024-02-15T07:35:18;7.70;99.90
13346;DHT22;6742;48.036;15.780;2024-02-15T07:37:51;7.80;99.90
13346;DHT22;6742;48.036;15.780;2024-02-15T07:40:21;7.80;99.90
13346;DHT22;6742;48.036;15.780;2024-02-15T07:42:48;7.90;99.90
13346;DHT22;6742;48.036;15.780;2024-02-15T07:45:17;8.10;99.90
13346;DHT22;6742;48.036;15.780;2024-02-15T07:47:44;8.20;99.90
13346;DHT22;6742;48.036;15.780;2024-02-15T07:50:15;8.20;99.90
13346;DHT22;6742;48.036;15.780;2024-02-15T07:52:45;8.40;99.90
13346;DHT22;6742;48.036;15.780;2024-02-15T07:55:13;8.50;99.90
13346;DHT22;6742;48.036;15.780;2024-02-15T07:57:40;8.60;99.90
13346;DHT22;6742;48.036;15.780;2024-02-15T08:00:08;8.70;99.90
13346;DHT22;6742;48.036;15.780;2024-02-15T08:02:37;8.80;99.90
13346;DHT22;6742;48.036;15.780;2024-02-15T08:05:06;8.90;99.90
13346;DHT22;6742;48.036;15.780;2024-02-15T08:07:37;9.10;99.90
13346;DHT22;6742;48.036;15.780;2024-02-15T08:10:06;9.20;99.90
13346;DHT22;6742;48.036;15.780;2024-02-15T08:12:39;9.20;99.90
13346;DHT22;6742;48.036;15.780;2024-02-15T08:15:07;9.20;99.90
13346;DHT22;6742;48.036;15.780;2024-02-15T08:17:38;9.30;99.90
13346;DHT22;6742;48.036;15.780;2024-02-15T08:20:07;9.20;99.90
13346;DHT22;6742;48.036;15.780;2024-02-15T08:22:35;9.00;99.90
13346;DHT22;6742;48.036;15.780;2024-02-15T08:25:06;9.00;99.90
13346;DHT22;6742;48.036;15.780;2024-02-15T08:27:37;9.00;99.90
13346;DHT22;6742;48.036;15.780;2024-02-15T08:30:07;9.10;99.90
13346;DHT22;6742;48.036;15.780;2024-02-15T08:32:36;9.30;99.90
13346;DHT22;6742;48.036;15.780;2024-02-15T08:35:03;9.30;99.90
13346;DHT22;6742;48.036;15.780;2024-02-15T08:37:31;9.40;99.90
13346;DHT22;6742;48.036;15.780;2024-02-15T08:39:59;9.40;99.90
13346;DHT22;6742;48.036;15.780;2024-02-15T08:42:28;9.50;99.90
13346;DHT22;6742;48.036;15.780;2024-02-15T08:44:55;9.30;99.90
13346;DHT22;6742;48.036;15.780;2024-02-15T08:47:22;9.30;99.90
13346;DHT22;6742;48.036;15.780;2024-02-15T08:49:49;9.40;99.90
13346;DHT22;6742;48.036;15.780;2024-02-15T08:52:15;9.50;99.90
13346;DHT22;6742;48.036;15.780;2024-02-15T08:54:44;9.90;99.90
13346;DHT22;6742;48.036;15.780;2024-02-15T08:57:11;10.40;99.90
13346;DHT22;6742;48.036;15.780;2024-02-15T08:59:40;10.90;99.90
13346;DHT22;6742;48.036;15.780;2024-02-15T09:02:08;11.30;99.90
13346;DHT22;6742;48.036;15.780;2024-02-15T09:04:35;11.50;99.90
13346;DHT22;6742;48.036;15.780;2024-02-15T09:07:02;11.80;99.90
13346;DHT22;6742;48.036;15.780;2024-02-15T09:09:30;11.80;99.90
13346;DHT22;6742;48.036;15.780;2024-02-15T09:12:01;11.50;99.90
13346;DHT22;6742;48.036;15.780;2024-02-15T09:14:31;11.60;99.90
13346;DHT22;6742;48.036;15.780;2024-02-15T09:16:59;11.60;99.90
13346;DHT22;6742;48.036;15.780;2024-02-15T09:19:27;11.70;99.90
13346;DHT22;6742;48.036;15.780;2024-02-15T09:21:54;11.90;99.90
13346;DHT22;6742;48.036;15.780;2024-02-15T09:24:22;12.30;99.90
13346;DHT22;6742;48.036;15.780;2024-02-15T09:26:50;12.70;99.90
13346;DHT22;6742;48.036;15.780;2024-02-15T09:29:18;12.70;99.90
13346;DHT22;6742;48.036;15.780;2024-02-15T09:31:46;13.10;99.90
13346;DHT22;6742;48.036;15.780;2024-02-15T09:34:15;13.60;99.90
13346;DHT22;6742;48.036;15.780;2024-02-15T09:36:42;13.90;99.90
13346;DHT22;6742;48.036;15.780;2024-02-15T09:39:09;14.10;99.90
13346;DHT22;6742;48.036;15.780;2024-02-15T09:41:39;14.50;99.90
13346;DHT22;6742;48.036;15.780;2024-02-15T09:44:08;14.80;99.90
13346;DHT22;6742;48.036;15.780;2024-02-15T09:46:36;14.50;99.90
13346;DHT22;6742;48.036;15.780;2024-02-15T09:49:07;14.70;99.90
13346;DHT22;6742;48.036;15.780;2024-02-15T09:51:36;14.30;99.90
13346;DHT22;6742;48.036;15.780;2024-02-15T09:54:04;14.50;99.90
13346;DHT22;6742;48.036;15.780;2024-02-15T09:56:32;15.00;99.90
13346;DHT22;6742;48.036;15.780;2024-02-15T09:59:00;15.30;99.90
13346;DHT22;6742;48.036;15.780;2024-02-15T10:01:31;15.50;99.90
13346;DHT22;6742;48.036;15.780;2024-02-15T10:03:58;15.10;99.90
13346;DHT22;6742;48.036;15.780;2024-02-15T10:06:26;15.20;99.90
13346;DHT22;6742;48.036;15.780;2024-02-15T10:09:24;15.50;99.90
13346;DHT22;6742;48.036;15.780;2024-02-15T10:11:56;15.40;99.90
13346;DHT22;6742;48.036;15.780;2024-02-15T10:14:24;15.50;99.90
13346;DHT22;6742;48.036;15.780;2024-02-15T10:16:51;15.80;99.90
13346;DHT22;6742;48.036;15.780;2024-02-15T10:19:19;16.20;99.90
13346;DHT22;6742;48.036;15.780;2024-02-15T10:21:51;16.40;99.90
13346;DHT22;6742;48.036;15.780;2024-02-15T10:24:23;16.90;99.90
13346;DHT22;6742;48.036;15.780;2024-02-15T10:26:50;16.80;99.90
13346;DHT22;6742;48.036;15.780;2024-02-15T10:29:19;17.10;99.90
13346;DHT22;6742;48.036;15.780;2024-02-15T10:31:53;17.20;99.90
13346;DHT22;6742;48.036;15.780;2024-02-15T10:34:20;17.30;99.90
13346;DHT22;6742;48.036;15.780;2024-02-15T10:36:47;17.40;99.90
13346;DHT22;6742;48.036;15.780;2024-02-15T10:39:16;17.20;99.90
13346;DHT22;6742;48.036;15.780;2024-02-15T10:41:50;17.00;99.90
13346;DHT22;6742;48.036;15.780;2024-02-15T10:44:20;16.90;99.90
13346;DHT22;6742;48.036;15.780;2024-02-15T10:46:49;16.50;99.90
13346;DHT22;6742;48.036;15.780;2024-02-15T10:49:21;16.60;99.90
13346;DHT22;6742;48.036;15.780;2024-02-15T10:51:52;16.50;99.90
13346;DHT22;6742;48.036;15.780;2024-02-15T10:54:34;16.70;99.90
13346;DHT22;6742;48.036;15.780;2024-02-15T10:57:06;16.60;99.90
13346;DHT22;6742;48.036;15.780;2024-02-15T10:59:35;16.50;99.90
13346;DHT22;6742;48.036;15.780;2024-02-15T11:02:13;16.50;99.90
13346;DHT22;6742;48.036;15.780;2024-02-15T11:04:52;16.60;99.90
13346;DHT22;6742;48.036;15.780;2024-02-15T11:07:23;16.00;99.90
13346;DHT22;6742;48.036;15.780;2024-02-15T11:09:51;16.10;99.90
13346;DHT22;6742;48.036;15.780;2024-02-15T11:12:19;16.20;99.90
13346;DHT22;6742;48.036;15.780;2024-02-15T11:14:48;16.40;99.90
13346;DHT22;6742;48.036;15.780;2024-02-15T11:20:49;16.60;99.90
13346;DHT22;6742;48.036;15.780;2024-02-15T11:23:25;16.60;99.90
13346;DHT22;6742;48.036;15.780;2024-02-15T11:25:53;16.40;99.90
13346;DHT22;6742;48.036;15.780;2024-02-15T11:28:43;16.40;99.90
13346;DHT22;6742;48.036;15.780;2024-02-15T11:34:44;16.30;99.90
13346;DHT22;6742;48.036;15.780;2024-02-15T11:40:19;15.90;99.90
13346;DHT22;6742;48.036;15.780;2024-02-15T11:42:48;16.00;99.90
13346;DHT22;6742;48.036;15.780;2024-02-15T11:45:18;16.10;99.90
13346;DHT22;6742;48.036;15.780;2024-02-15T11:47:48;16.10;99.90
13346;DHT22;6742;48.036;15.780;2024-02-15T11:50:16;16.10;99.90
13346;DHT22;6742;48.036;15.780;2024-02-15T11:52:44;16.00;99.90
13346;DHT22;6742;48.036;15.780;2024-02-15T11:55:12;16.00;99.90
13346;DHT22;6742;48.036;15.780;2024-02-15T11:57:40;16.10;99.90
13346;DHT22;6742;48.036;15.780;2024-02-15T12:00:24;15.90;99.90
13346;DHT22;6742;48.036;15.780;2024-02-15T12:03:09;15.80;99.90
13346;DHT22;6742;48.036;15.780;2024-02-15T12:05:54;15.80;99.90
13346;DHT22;6742;48.036;15.780;2024-02-15T12:08:38;15.70;99.90
13346;DHT22;6742;48.036;15.780;2024-02-15T12:11:22;15.70;99.90
13346;DHT22;6742;48.036;15.780;2024-02-15T12:14:06;15.70;99.90
13346;DHT22;6742;48.036;15.780;2024-02-15T12:17:02;15.80;99.90
13346;DHT22;6742;48.036;15.780;2024-02-15T12:19:48;15.90;99.90
13346;DHT22;6742;48.036;15.780;2024-02-15T12:22:18;15.90;99.90
13346;DHT22;6742;48.036;15.780;2024-02-15T12:24:53;15.90;99.90
13346;DHT22;6742;48.036;15.780;2024-02-15T12:27:21;15.80;99.90
13346;DHT22;6742;48.036;15.780;2024-02-15T12:29:55;15.90;99.90
13346;DHT22;6742;48.036;15.780;2024-02-15T12:32:25;16.00;99.90
13346;DHT22;6742;48.036;15.780;2024-02-15T12:34:53;16.20;99.90
13346;DHT22;6742;48.036;15.780;2024-02-15T12:37:20;16.10;99.90
13346;DHT22;6742;48.036;15.780;2024-02-15T12:39:49;15.90;99.90
13346;DHT22;6742;48.036;15.780;2024-02-15T12:42:16;15.90;99.90
13346;DHT22;6742;48.036;15.780;2024-02-15T12:44:46;16.10;99.90
13346;DHT22;6742;48.036;15.780;2024-02-15T12:47:20;16.10;99.90
13346;DHT22;6742;48.036;15.780;2024-02-15T12:49:49;16.20;99.90
13346;DHT22;6742;48.036;15.780;2024-02-15T12:52:33;16.20;99.90
13346;DHT22;6742;48.036;15.780;2024-02-15T12:55:11;16.20;99.90
13346;DHT22;6742;48.036;15.780;2024-02-15T12:57:38;16.00;99.90
13346;DHT22;6742;48.036;15.780;2024-02-15T13:00:08;16.00;99.90
13346;DHT22;6742;48.036;15.780;2024-02-15T13:02:40;16.00;99.90
13346;DHT22;6742;48.036;15.780;2024-02-15T13:05:08;15.80;99.90
13346;DHT22;6742;48.036;15.780;2024-02-15T13:07:36;15.80;99.90
13346;DHT22;6742;48.036;15.780;2024-02-15T13:10:04;15.80;99.90
13346;DHT22;6742;48.036;15.780;2024-02-15T13:12:33;15.80;99.90
13346;DHT22;6742;48.036;15.780;2024-02-15T13:15:02;15.70;99.90
13346;DHT22;6742;48.036;15.780;2024-02-15T13:17:32;15.80;99.90
13346;DHT22;6742;48.036;15.780;2024-02-15T13:20:00;16.00;99.90
13346;DHT22;6742;48.036;15.780;2024-02-15T13:22:33;15.80;99.90
13346;DHT22;6742;48.036;15.780;2024-02-15T13:25:02;15.70;99.90
13346;DHT22;6742;48.036;15.780;2024-02-15T13:27:29;15.70;99.90
13346;DHT22;6742;48.036;15.780;2024-02-15T13:29:57;15.60;99.90
13346;DHT22;6742;48.036;15.780;2024-02-15T13:32:24;15.60;99.90
13346;DHT22;6742;48.036;15.780;2024-02-15T13:34:51;15.40;99.90
13346;DHT22;6742;48.036;15.780;2024-02-15T13:37:22;15.40;99.90
13346;DHT22;6742;48.036;15.780;2024-02-15T13:39:51;15.40;99.90
13346;DHT22;6742;48.036;15.780;2024-02-15T13:42:18;15.30;99.90
13346;DHT22;6742;48.036;15.780;2024-02-15T13:44:45;15.10;99.90
13346;DHT22;6742;48.036;15.780;2024-02-15T13:47:12;15.10;99.90
13346;DHT22;6742;48.036;15.780;2024-02-15T13:49:41;15.10;99.90
13346;DHT22;6742;48.036;15.780;2024-02-15T13:52:09;15.20;99.90
13346;DHT22;6742;48.036;15.780;2024-02-15T13:54:36;15.10;99.90
13346;DHT22;6742;48.036;15.780;2024-02-15T13:57:05;15.20;99.90
13346;DHT22;6742;48.036;15.780;2024-02-15T13:59:33;15.30;99.90
13346;DHT22;6742;48.036;15.780;2024-02-15T14:02:00;15.20;99.90
13346;DHT22;6742;48.036;15.780;2024-02-15T14:04:29;15.10;99.90
13346;DHT22;6742;48.036;15.780;2024-02-15T14:06:57;15.10;99.90
13346;DHT22;6742;48.036;15.780;2024-02-15T14:09:26;15.10;99.90
13346;DHT22;6742;48.036;15.780;2024-02-15T14:11:53;15.20;99.90
13346;DHT22;6742;48.036;15.780;2024-02-15T14:14:21;15.30;99.90
13346;DHT22;6742;48.036;15.780;2024-02-15T14:16:48;15.30;99.90
13346;DHT22;6742;48.036;15.780;2024-02-15T14:19:15;15.20;99.90
13346;DHT22;6742;48.036;15.780;2024-02-15T14:21:43;15.00;99.90
13346;DHT22;6742;48.036;15.780;2024-02-15T14:24:10;14.80;99.90
13346;DHT22;6742;48.036;15.780;2024-02-15T14:26:38;14.70;99.90
13346;DHT22;6742;48.036;15.780;2024-02-15T14:29:05;14.50;99.90
13346;DHT22;6742;48.036;15.780;2024-02-15T14:31:34;14.40;99.90
13346;DHT22;6742;48.036;15.780;2024-02-15T14:34:18;14.30;99.90
13346;DHT22;6742;48.036;15.780;2024-02-15T14:36:46;14.30;99.90
13346;DHT22;6742;48.036;15.780;2024-02-15T14:39:14;14.20;99.90
13346;DHT22;6742;48.036;15.780;2024-02-15T14:41:41;14.30;99.90
13346;DHT22;6742;48.036;15.780;2024-02-15T14:44:09;14.40;99.90
13346;DHT22;6742;48.036;15.780;2024-02-15T14:46:39;14.30;99.90
13346;DHT22;6742;48.036;15.780;2024-02-15T14:49:06;14.20;99.90
13346;DHT22;6742;48.036;15.780;2024-02-15T14:51:34;14.10;99.90
13346;DHT22;6742;48.036;15.780;2024-02-15T14:54:02;14.10;99.90
13346;DHT22;6742;48.036;15.780;2024-02-15T14:56:30;13.90;99.90
13346;DHT22;6742;48.036;15.780;2024-02-15T14:58:58;13.90;99.90
13346;DHT22;6742;48.036;15.780;2024-02-15T15:01:26;13.80;99.90
13346;DHT22;6742;48.036;15.780;2024-02-15T15:03:56;13.70;99.90
13346;DHT22;6742;48.036;15.780;2024-02-15T15:06:24;13.70;99.90
13346;DHT22;6742;48.036;15.780;2024-02-15T15:09:09;13.70;99.90
13346;DHT22;6742;48.036;15.780;2024-02-15T15:11:54;13.70;99.90
13346;DHT22;6742;48.036;15.780;2024-02-15T15:14:39;13.70;99.90
13346;DHT22;6742;48.036;15.780;2024-02-15T15:17:07;13.80;99.90
13346;DHT22;6742;48.036;15.780;2024-02-15T15:19:37;13.80;99.90
13346;DHT22;6742;48.036;15.780;2024-02-15T15:22:04;13.80;99.90
13346;DHT22;6742;48.036;15.780;2024-02-15T15:24:33;13.80;99.90
13346;DHT22;6742;48.036;15.780;2024-02-15T15:27:00;13.70;99.90
13346;DHT22;6742;48.036;15.780;2024-02-15T15:29:30;13.70;99.90
13346;DHT22;6742;48.036;15.780;2024-02-15T15:31:57;13.60;99.90
13346;DHT22;6742;48.036;15.780;2024-02-15T15:34:24;13.50;99.90
13346;DHT22;6742;48.036;15.780;2024-02-15T15:36:52;13.30;99.90
13346;DHT22;6742;48.036;15.780;2024-02-15T15:39:20;13.10;99.90
13346;DHT22;6742;48.036;15.780;2024-02-15T15:41:50;13.00;99.90
13346;DHT22;6742;48.036;15.780;2024-02-15T15:44:20;12.90;99.90
13346;DHT22;6742;48.036;15.780;2024-02-15T15:46:50;12.90;99.90
13346;DHT22;6742;48.036;15.780;2024-02-15T15:49:17;12.80;99.90
13346;DHT22;6742;48.036;15.780;2024-02-15T15:51:44;12.80;99.90
13346;DHT22;6742;48.036;15.780;2024-02-15T15:54:14;12.80;99.90
13346;DHT22;6742;48.036;15.780;2024-02-15T15:56:41;12.70;99.90
13346;DHT22;6742;48.036;15.780;2024-02-15T15:59:08;12.60;99.90
13346;DHT22;6742;48.036;15.780;2024-02-15T16:01:36;12.50;99.90
13346;DHT22;6742;48.036;15.780;2024-02-15T16:04:03;12.40;99.90